Terminal Aerodrome Forecast
Issued by NWS

Home | Current Version | Previous Version | Text Only | Print | Product List | Glossary On
Versions: 1 2 3 4 5 6 7 8 9 10 11 12 13 14 15 16 17
481
FTUS46 KPDT 250520
TAFRDM
TAF
KRDM 250520Z 2506/2606 31005KT P6SM BKN060
     FM250800 18004KT P6SM FEW050 SCT070
     FM251800 32009KT P6SM SCT060
     FM252100 32010G18KT P6SM FEW060 SCT250
     FM260300 31008KT P6SM FEW050=

USA.gov is the U.S. government's official web portal to all federal, state and local government web resources and services.